Time;durP1;ratioP1;P1;durP2;ratioP2;P2;SDS_P1;SDS_P2;PMS_P1;PMS_P2;Temp;Humidity;BMP_temperature;BMP_pressure;BME280_temperature;BME280_humidity;BME280_pressure;Samples;Min_cycle;Max_cycle;Signal;HPM_P1;HPM_P2
2023/12/29 00:06:08;;;;;;;;;;;;;;;1.86;100.00;99196.83;435840;1256;126835;-64
2023/12/29 00:16:12;;;;;;;;;;;;;;;1.88;100.00;99186.39;435641;1254;126885;-64
2023/12/29 00:26:18;;;;;;;;;;;;;;;1.83;100.00;99179.31;435314;1251;127008;-64
2023/12/29 00:36:22;;;;;;;;;;;;;;;1.75;100.00;99177.02;435404;1254;125724;-65
2023/12/29 00:46:27;;;;;;;;;;;;;;;1.73;100.00;99160.34;434873;1256;126163;-64
2023/12/29 00:56:31;;;;;;;;;;;;;;;1.68;100.00;99151.35;435723;1255;126789;-64
2023/12/29 01:06:36;;;;;;;;;;;;;;;1.60;100.00;99146.27;435713;1254;125773;-65
2023/12/29 01:16:41;;;;;;;;;;;;;;;1.46;100.00;99142.09;435117;1255;128772;-64
2023/12/29 01:26:45;;;;;;;;;;;;;;;1.19;100.00;99136.75;434831;1255;127643;-63
2023/12/29 01:36:50;;;;;;;;;;;;;;;0.98;100.00;99121.73;435349;1254;125632;-65
2023/12/29 01:46:56;;;;;;;;;;;;;;;0.84;100.00;99112.02;435314;1255;125921;-65
2023/12/29 01:57:02;;;;;;;;;;;;;;;0.63;100.00;99102.00;436053;1255;126485;-64
2023/12/29 02:07:06;;;;;;;;;;;;;;;0.36;100.00;99093.86;435652;1254;125822;-64
2023/12/29 02:17:18;;;;;;;;;;;;;;;0.13;100.00;99075.09;435409;1257;125826;-64
2023/12/29 02:27:32;;;;;;;;;;;;;;;-0.05;100.00;99071.97;435142;1256;126932;-64
2023/12/29 02:37:38;;;;;;;;;;;;;;;-0.14;100.00;99067.91;435127;1257;126470;-63
2023/12/29 02:47:42;;;;;;;;;;;;;;;-0.05;100.00;99057.16;436703;1255;126694;-65
2023/12/29 02:57:47;;;;;;;;;;;;;;;0.17;100.00;99043.80;435931;1254;126648;-65
2023/12/29 03:07:51;;;;;;;;;;;;;;;0.21;100.00;99049.00;436454;1254;125537;-64
2023/12/29 03:17:57;;;;;;;;;;;;;;;0.19;100.00;99047.52;435612;1254;126022;-64
2023/12/29 03:28:02;;;;;;;;;;;;;;;0.13;100.00;99041.86;435940;1251;126704;-64
2023/12/29 03:38:07;;;;;;;;;;;;;;;0.28;100.00;99045.19;434916;1254;126565;-65
2023/12/29 03:48:12;;;;;;;;;;;;;;;0.47;100.00;99034.27;435515;1251;125727;-64
2023/12/29 03:58:17;;;;;;;;;;;;;;;0.63;100.00;99023.63;435207;1251;126777;-64
2023/12/29 04:08:21;;;;;;;;;;;;;;;0.88;100.00;99012.30;437043;1251;126635;-64
2023/12/29 04:18:26;;;;;;;;;;;;;;;1.08;100.00;99000.59;434884;1254;296767;-64
2023/12/29 04:28:30;;;;;;;;;;;;;;;1.31;100.00;98997.23;436153;1252;125904;-66
2023/12/29 04:38:35;;;;;;;;;;;;;;;1.59;100.00;98996.04;435374;1254;126419;-63
2023/12/29 04:48:39;;;;;;;;;;;;;;;1.92;100.00;98988.27;435577;1254;127023;-64
2023/12/29 04:58:44;;;;;;;;;;;;;;;2.25;100.00;98968.02;435067;1251;127013;-65
2023/12/29 05:08:48;;;;;;;;;;;;;;;2.50;100.00;98967.35;435586;1254;127453;-64
2023/12/29 05:18:53;;;;;;;;;;;;;;;2.43;100.00;98972.47;435967;1251;125795;-64
2023/12/29 05:28:57;;;;;;;;;;;;;;;2.19;100.00;98974.10;435803;1251;126027;-65
2023/12/29 05:39:02;;;;;;;;;;;;;;;2.03;100.00;98962.30;435530;1254;125883;-63
2023/12/29 05:49:07;;;;;;;;;;;;;;;1.94;100.00;98962.47;436236;1251;127075;-62
2023/12/29 05:59:12;;;;;;;;;;;;;;;1.89;100.00;98954.55;437453;1254;126578;-65
2023/12/29 06:09:16;;;;;;;;;;;;;;;1.90;100.00;98950.18;435522;1256;126707;-61
2023/12/29 06:19:21;;;;;;;;;;;;;;;2.06;100.00;98954.75;435189;1256;125971;-60
2023/12/29 06:29:25;;;;;;;;;;;;;;;2.27;100.00;98947.52;434879;1256;126279;-60
2023/12/29 06:39:30;;;;;;;;;;;;;;;2.50;100.00;98933.48;434853;1254;128088;-59
2023/12/29 06:49:35;;;;;;;;;;;;;;;2.73;100.00;98929.58;434692;1256;126955;-60
2023/12/29 06:59:39;;;;;;;;;;;;;;;2.95;100.00;98931.94;436948;1254;126346;-60
2023/12/29 07:09:44;;;;;;;;;;;;;;;3.17;100.00;98926.71;434859;1254;126424;-60
2023/12/29 07:19:49;;;;;;;;;;;;;;;3.32;100.00;98927.05;435214;1254;126318;-60
2023/12/29 07:29:54;;;;;;;;;;;;;;;3.38;100.00;98927.84;436254;1254;126426;-60
2023/12/29 07:39:59;;;;;;;;;;;;;;;3.41;100.00;98924.40;435186;1251;126526;-60
2023/12/29 07:50:04;;;;;;;;;;;;;;;3.51;100.00;98921.05;435301;1251;126981;-59
2023/12/29 08:00:10;;;;;;;;;;;;;;;3.73;100.00;98911.39;437476;1250;125787;-60
2023/12/29 08:10:14;;;;;;;;;;;;;;;3.99;100.00;98913.13;435311;1253;126804;-60
2023/12/29 08:20:21;;;;;;;;;;;;;;;4.23;100.00;98913.52;435522;1254;146420;-60
2023/12/29 08:30:25;;;;;;;;;;;;;;;4.51;100.00;98897.61;435681;1251;126286;-61
2023/12/29 08:40:29;;;;;;;;;;;;;;;4.86;100.00;98895.13;435575;1250;125846;-61
2023/12/29 08:50:34;;;;;;;;;;;;;;;5.47;100.00;98900.11;435755;1254;126475;-60
2023/12/29 09:00:38;;;;;;;;;;;;;;;6.28;100.00;98905.90;436111;1250;126491;-60
2023/12/29 09:10:43;;;;;;;;;;;;;;;7.29;100.00;98908.02;436034;1254;126515;-60
2023/12/29 09:20:48;;;;;;;;;;;;;;;7.73;100.00;98908.11;435289;1254;126219;-61
2023/12/29 09:30:53;;;;;;;;;;;;;;;7.23;100.00;98914.00;436410;1254;127159;-62
2023/12/29 09:41:00;;;;;;;;;;;;;;;6.57;100.00;98910.71;436225;1251;126906;-61
2023/12/29 09:51:06;;;;;;;;;;;;;;;6.17;100.00;98904.30;435988;1251;126127;-62
2023/12/29 10:01:11;;;;;;;;;;;;;;;6.05;100.00;98896.83;436136;1251;125777;-63
2023/12/29 10:11:17;;;;;;;;;;;;;;;6.20;100.00;98894.77;435948;1253;125467;-62
2023/12/29 10:21:24;;;;;;;;;;;;;;;6.57;100.00;98890.91;435331;1250;126644;-62
2023/12/29 10:31:28;;;;;;;;;;;;;;;6.93;100.00;98885.48;435491;1251;126186;-62
2023/12/29 10:41:33;;;;;;;;;;;;;;;7.33;100.00;98881.16;435222;1254;126017;-60
2023/12/29 10:51:38;;;;;;;;;;;;;;;7.79;100.00;98874.45;435331;1254;125954;-63
2023/12/29 11:01:43;;;;;;;;;;;;;;;8.09;100.00;98872.20;435559;1250;125833;-63
2023/12/29 11:11:48;;;;;;;;;;;;;;;8.47;100.00;98860.80;438102;1253;125812;-67
2023/12/29 11:21:55;;;;;;;;;;;;;;;8.47;100.00;98849.64;436024;1250;126090;-70
2023/12/29 11:32:02;;;;;;;;;;;;;;;8.58;100.00;98837.80;435957;1251;126422;-71
2023/12/29 11:42:12;;;;;;;;;;;;;;;8.58;100.00;98818.44;438334;1251;126378;-70
2023/12/29 11:52:33;;;;;;;;;;;;;;;8.53;100.00;98812.66;436631;1254;126350;-70
2023/12/29 12:02:38;;;;;;;;;;;;;;;8.52;100.00;98805.92;436397;1250;126257;-72
2023/12/29 12:12:43;;;;;;;;;;;;;;;8.68;100.00;98793.52;438146;1251;127607;-63
2023/12/29 12:22:50;;;;;;;;;;;;;;;8.72;100.00;98790.97;435609;1250;126307;-69
2023/12/29 12:33:00;;;;;;;;;;;;;;;8.79;100.00;98800.77;436506;1254;126372;-62
2023/12/29 12:43:06;;;;;;;;;;;;;;;8.76;100.00;98797.84;437122;1253;126649;-63
2023/12/29 12:53:14;;;;;;;;;;;;;;;8.71;100.00;98802.20;435666;1254;127216;-63
2023/12/29 13:03:19;;;;;;;;;;;;;;;8.69;100.00;98808.83;435635;1251;126897;-60
2023/12/29 13:13:23;;;;;;;;;;;;;;;8.84;100.00;98812.10;435572;1253;125927;-61
2023/12/29 13:23:28;;;;;;;;;;;;;;;8.88;100.00;98816.94;435556;1253;126101;-70
2023/12/29 13:33:38;;;;;;;;;;;;;;;8.72;100.00;98815.54;435378;1254;126450;-68
2023/12/29 13:43:45;;;;;;;;;;;;;;;8.61;100.00;98815.66;435523;1254;125667;-70
2023/12/29 13:53:50;;;;;;;;;;;;;;;8.48;100.00;98827.11;436328;1254;126371;-69
2023/12/29 14:03:59;;;;;;;;;;;;;;;8.33;100.00;98827.94;435096;1254;126228;-72
2023/12/29 14:14:04;;;;;;;;;;;;;;;8.01;100.00;98830.86;435528;1250;125614;-60
2023/12/29 14:24:10;;;;;;;;;;;;;;;7.63;100.00;98829.52;435394;1254;126463;-62
2023/12/29 14:34:15;;;;;;;;;;;;;;;7.29;100.00;98826.56;435523;1251;125480;-60
2023/12/29 14:44:20;;;;;;;;;;;;;;;6.92;100.00;98829.84;435524;1250;126525;-61
2023/12/29 14:54:24;;;;;;;;;;;;;;;6.65;100.00;98828.34;435487;1250;126109;-62
2023/12/29 15:04:31;;;;;;;;;;;;;;;6.47;100.00;98824.89;435117;1250;126434;-71
2023/12/29 15:14:36;;;;;;;;;;;;;;;6.32;100.00;98828.56;435282;1250;126332;-70
2023/12/29 15:24:40;;;;;;;;;;;;;;;6.15;100.00;98823.98;436426;1250;126117;-71
2023/12/29 15:34:45;;;;;;;;;;;;;;;6.00;100.00;98829.67;435614;1254;127126;-66
2023/12/29 15:44:50;;;;;;;;;;;;;;;5.90;100.00;98829.34;435448;1251;126076;-65
2023/12/29 15:54:54;;;;;;;;;;;;;;;5.88;100.00;98818.85;435858;1251;127454;-65
2023/12/29 16:04:59;;;;;;;;;;;;;;;5.79;100.00;98816.05;435648;1250;125926;-66
2023/12/29 16:15:04;;;;;;;;;;;;;;;5.76;100.00;98814.65;435147;1250;152026;-68
2023/12/29 16:25:10;;;;;;;;;;;;;;;5.77;100.00;98804.53;435279;1254;126442;-67
2023/12/29 16:35:15;;;;;;;;;;;;;;;5.91;100.00;98807.23;435580;1255;126731;-64
2023/12/29 16:45:20;;;;;;;;;;;;;;;6.02;100.00;98808.69;435722;1255;126984;-66
2023/12/29 16:55:25;;;;;;;;;;;;;;;6.19;100.00;98811.08;435558;1250;125943;-66
2023/12/29 17:05:29;;;;;;;;;;;;;;;6.25;100.00;98805.65;435310;1251;126423;-67
2023/12/29 17:15:34;;;;;;;;;;;;;;;6.18;100.00;98804.85;435615;1255;126647;-67
2023/12/29 17:25:38;;;;;;;;;;;;;;;6.26;100.00;98809.39;435530;1255;125535;-68
2023/12/29 17:35:53;;;;;;;;;;;;;;;6.42;100.00;98806.55;438587;1254;126284;-66
2023/12/29 17:45:58;;;;;;;;;;;;;;;6.58;100.00;98801.66;434865;1256;125680;-67
2023/12/29 17:56:05;;;;;;;;;;;;;;;6.68;100.00;98799.47;435702;1255;126885;-65
2023/12/29 18:06:12;;;;;;;;;;;;;;;6.75;100.00;98799.41;435336;1251;127061;-67
2023/12/29 18:16:16;;;;;;;;;;;;;;;6.84;100.00;98798.33;434875;1254;126114;-68
2023/12/29 18:26:21;;;;;;;;;;;;;;;6.99;100.00;98788.73;435166;1254;125559;-67
2023/12/29 18:36:25;;;;;;;;;;;;;;;7.14;100.00;98794.79;436625;1255;125951;-70
2023/12/29 18:46:30;;;;;;;;;;;;;;;7.23;100.00;98800.83;435427;1255;127649;-67
2023/12/29 18:56:35;;;;;;;;;;;;;;;7.27;100.00;98794.27;435619;1255;127228;-68
2023/12/29 19:06:40;;;;;;;;;;;;;;;7.34;100.00;98791.63;435510;1255;125605;-68
2023/12/29 19:16:44;;;;;;;;;;;;;;;7.38;100.00;98784.52;436302;1251;127560;-68
2023/12/29 19:26:49;;;;;;;;;;;;;;;7.42;100.00;98787.41;434997;1256;125734;-68
2023/12/29 19:36:53;;;;;;;;;;;;;;;7.42;100.00;98785.31;435089;1251;125466;-68
2023/12/29 19:46:57;;;;;;;;;;;;;;;7.39;100.00;98787.64;434786;1255;126536;-67
2023/12/29 19:57:02;;;;;;;;;;;;;;;7.38;100.00;98786.65;434931;1256;126531;-66
2023/12/29 20:07:06;;;;;;;;;;;;;;;7.37;100.00;98791.26;434957;1256;125540;-72
2023/12/29 20:17:11;;;;;;;;;;;;;;;7.35;100.00;98802.00;435548;1255;125795;-69
2023/12/29 20:27:15;;;;;;;;;;;;;;;7.42;100.00;98806.41;435365;1252;126932;-69
2023/12/29 20:37:20;;;;;;;;;;;;;;;7.44;100.00;98807.71;435063;1254;126005;-68
2023/12/29 20:47:25;;;;;;;;;;;;;;;7.47;100.00;98802.48;435178;1255;126432;-68
2023/12/29 20:57:29;;;;;;;;;;;;;;;7.47;100.00;98805.94;434935;1251;127155;-67
2023/12/29 21:07:34;;;;;;;;;;;;;;;7.51;100.00;98800.83;436427;1251;127020;-67
2023/12/29 21:17:38;;;;;;;;;;;;;;;7.60;100.00;98793.98;435078;1254;125694;-68
2023/12/29 21:27:43;;;;;;;;;;;;;;;7.66;100.00;98782.58;434980;1255;127409;-66
2023/12/29 21:37:47;;;;;;;;;;;;;;;7.71;100.00;98785.40;435455;1256;125919;-66
2023/12/29 21:47:52;;;;;;;;;;;;;;;7.81;100.00;98786.31;436599;1256;125634;-69
2023/12/29 21:58:00;;;;;;;;;;;;;;;7.89;100.00;98785.14;435646;1250;126046;-69
2023/12/29 22:08:06;;;;;;;;;;;;;;;7.72;100.00;98773.85;435532;1254;127176;-68
2023/12/29 22:18:11;;;;;;;;;;;;;;;7.46;100.00;98768.70;435834;1251;126511;-68
2023/12/29 22:28:16;;;;;;;;;;;;;;;7.22;100.00;98766.56;437053;1251;126598;-68
2023/12/29 22:38:20;;;;;;;;;;;;;;;7.02;100.00;98758.23;435642;1256;127685;-68
2023/12/29 22:48:25;;;;;;;;;;;;;;;6.90;100.00;98745.23;435618;1254;127631;-68
2023/12/29 22:58:29;;;;;;;;;;;;;;;6.76;100.00;98740.16;435133;1254;127621;-68
2023/12/29 23:08:34;;;;;;;;;;;;;;;6.60;100.00;98735.76;436507;1251;125568;-68
2023/12/29 23:18:39;;;;;;;;;;;;;;;6.55;100.00;98731.70;435329;1254;126089;-68
2023/12/29 23:28:47;;;;;;;;;;;;;;;6.46;100.00;98717.49;435111;1254;126293;-68
2023/12/29 23:38:51;;;;;;;;;;;;;;;6.40;100.00;98705.34;435260;1252;126197;-69
2023/12/29 23:48:55;;;;;;;;;;;;;;;6.42;100.00;98703.32;435630;1251;125964;-67
2023/12/29 23:59:00;;;;;;;;;;;;;;;6.44;100.00;98697.60;435397;1254;127615;-67
